sensor_id;sensor_type;location;lat;lon;timestamp;pressure;altitude;pressure_sealevel;temperature;humidity
26865;BME280;40618;51.166;10.322;2023-08-06T00:00:21;96623.06;;;14.45;77.40
26865;BME280;40618;51.166;10.322;2023-08-06T00:02:47;96621.47;;;14.43;76.82
26865;BME280;40618;51.166;10.322;2023-08-06T00:05:13;96617.25;;;14.40;77.00
26865;BME280;40618;51.166;10.322;2023-08-06T00:07:38;96618.75;;;14.44;76.88
26865;BME280;40618;51.166;10.322;2023-08-06T00:10:04;96615.97;;;14.47;76.89
26865;BME280;40618;51.166;10.322;2023-08-06T00:12:30;96609.84;;;14.48;77.06
26865;BME280;40618;51.166;10.322;2023-08-06T00:14:56;96603.50;;;14.52;77.32
26865;BME280;40618;51.166;10.322;2023-08-06T00:17:22;96600.34;;;14.47;77.18
26865;BME280;40618;51.166;10.322;2023-08-06T00:19:47;96598.69;;;14.46;77.11
26865;BME280;40618;51.166;10.322;2023-08-06T00:22:13;96601.09;;;14.49;77.70
26865;BME280;40618;51.166;10.322;2023-08-06T00:24:39;96595.69;;;14.52;77.25
26865;BME280;40618;51.166;10.322;2023-08-06T00:27:04;96592.06;;;14.55;77.39
26865;BME280;40618;51.166;10.322;2023-08-06T00:29:30;96585.19;;;14.54;77.55
26865;BME280;40618;51.166;10.322;2023-08-06T00:31:56;96586.13;;;14.53;77.58
26865;BME280;40618;51.166;10.322;2023-08-06T00:34:21;96586.13;;;14.53;77.37
26865;BME280;40618;51.166;10.322;2023-08-06T00:36:47;96590.50;;;14.52;77.36
26865;BME280;40618;51.166;10.322;2023-08-06T00:39:13;96588.66;;;14.54;77.64
26865;BME280;40618;51.166;10.322;2023-08-06T00:41:38;96584.16;;;14.56;77.67
26865;BME280;40618;51.166;10.322;2023-08-06T00:44:04;96574.66;;;14.55;77.60
26865;BME280;40618;51.166;10.322;2023-08-06T00:46:31;96578.56;;;14.48;77.12
26865;BME280;40618;51.166;10.322;2023-08-06T00:48:58;96581.91;;;14.36;77.19
26865;BME280;40618;51.166;10.322;2023-08-06T00:51:25;96564.50;;;14.36;77.24
26865;BME280;40618;51.166;10.322;2023-08-06T00:53:52;96568.53;;;14.42;77.42
26865;BME280;40618;51.166;10.322;2023-08-06T00:56:18;96563.16;;;14.45;77.76
26865;BME280;40618;51.166;10.322;2023-08-06T00:58:45;96558.50;;;14.50;77.51
26865;BME280;40618;51.166;10.322;2023-08-06T01:01:11;96566.94;;;14.54;77.85
26865;BME280;40618;51.166;10.322;2023-08-06T01:03:37;96570.31;;;14.56;77.46
26865;BME280;40618;51.166;10.322;2023-08-06T01:06:03;96564.00;;;14.60;77.92
26865;BME280;40618;51.166;10.322;2023-08-06T01:11:12;96549.03;;;14.64;77.50
26865;BME280;40618;51.166;10.322;2023-08-06T01:13:47;96546.41;;;14.64;77.43
26865;BME280;40618;51.166;10.322;2023-08-06T01:16:17;96537.84;;;14.62;77.83
26865;BME280;40618;51.166;10.322;2023-08-06T01:18:44;96544.91;;;14.60;77.67
26865;BME280;40618;51.166;10.322;2023-08-06T01:21:15;96537.94;;;14.60;77.93
26865;BME280;40618;51.166;10.322;2023-08-06T01:23:42;96539.69;;;14.60;77.60
26865;BME280;40618;51.166;10.322;2023-08-06T01:26:14;96538.75;;;14.61;77.85
26865;BME280;40618;51.166;10.322;2023-08-06T01:31:48;96537.09;;;14.60;77.72
26865;BME280;40618;51.166;10.322;2023-08-06T01:34:24;96539.78;;;14.58;77.88
26865;BME280;40618;51.166;10.322;2023-08-06T01:36:52;96540.63;;;14.59;77.65
26865;BME280;40618;51.166;10.322;2023-08-06T01:39:18;96538.41;;;14.52;77.89
26865;BME280;40618;51.166;10.322;2023-08-06T01:41:47;96546.97;;;14.54;77.84
26865;BME280;40618;51.166;10.322;2023-08-06T01:44:14;96557.38;;;14.54;78.01
26865;BME280;40618;51.166;10.322;2023-08-06T01:46:40;96552.09;;;14.56;78.06
26865;BME280;40618;51.166;10.322;2023-08-06T01:49:05;96556.44;;;14.55;77.93
26865;BME280;40618;51.166;10.322;2023-08-06T01:51:31;96551.16;;;14.57;77.95
26865;BME280;40618;51.166;10.322;2023-08-06T01:53:57;96548.63;;;14.55;77.71
26865;BME280;40618;51.166;10.322;2023-08-06T01:56:22;96544.38;;;14.54;77.71
26865;BME280;40618;51.166;10.322;2023-08-06T01:58:48;96547.06;;;14.53;78.04
26865;BME280;40618;51.166;10.322;2023-08-06T02:01:13;96542.13;;;14.48;77.93
26865;BME280;40618;51.166;10.322;2023-08-06T02:03:39;96536.91;;;14.48;77.82
26865;BME280;40618;51.166;10.322;2023-08-06T02:06:04;96528.16;;;14.49;78.17
26865;BME280;40618;51.166;10.322;2023-08-06T02:08:30;96516.06;;;14.48;78.14
26865;BME280;40618;51.166;10.322;2023-08-06T02:10:55;96521.47;;;14.45;78.31
26865;BME280;40618;51.166;10.322;2023-08-06T02:13:23;96526.03;;;14.42;78.06
26865;BME280;40618;51.166;10.322;2023-08-06T02:15:48;96511.31;;;14.41;78.27
26865;BME280;40618;51.166;10.322;2023-08-06T02:18:14;96506.88;;;14.43;78.02
26865;BME280;40618;51.166;10.322;2023-08-06T02:20:40;96511.25;;;14.42;78.19
26865;BME280;40618;51.166;10.322;2023-08-06T02:23:06;96507.97;;;14.38;78.19
26865;BME280;40618;51.166;10.322;2023-08-06T02:25:32;96514.13;;;14.37;78.29
26865;BME280;40618;51.166;10.322;2023-08-06T02:27:58;96513.19;;;14.38;78.34
26865;BME280;40618;51.166;10.322;2023-08-06T02:30:23;96513.09;;;14.40;78.08
26865;BME280;40618;51.166;10.322;2023-08-06T02:32:49;96510.59;;;14.38;78.13
26865;BME280;40618;51.166;10.322;2023-08-06T02:35:14;96505.47;;;14.37;78.07
26865;BME280;40618;51.166;10.322;2023-08-06T02:37:40;96512.53;;;14.35;77.94
26865;BME280;40618;51.166;10.322;2023-08-06T02:40:06;96503.06;;;14.34;78.30
26865;BME280;40618;51.166;10.322;2023-08-06T02:42:32;96502.09;;;14.35;78.47
26865;BME280;40618;51.166;10.322;2023-08-06T02:44:58;96507.50;;;14.32;78.35
26865;BME280;40618;51.166;10.322;2023-08-06T02:47:23;96501.94;;;14.24;78.28
26865;BME280;40618;51.166;10.322;2023-08-06T02:49:49;96493.38;;;14.21;78.63
26865;BME280;40618;51.166;10.322;2023-08-06T02:52:15;96493.38;;;14.21;78.60
26865;BME280;40618;51.166;10.322;2023-08-06T02:54:40;96492.34;;;14.24;78.69
26865;BME280;40618;51.166;10.322;2023-08-06T02:57:06;96484.47;;;14.26;78.59
26865;BME280;40618;51.166;10.322;2023-08-06T02:59:32;96489.47;;;14.29;78.85
26865;BME280;40618;51.166;10.322;2023-08-06T03:01:58;96480.75;;;14.30;78.61
26865;BME280;40618;51.166;10.322;2023-08-06T03:04:23;96483.59;;;14.25;78.39
26865;BME280;40618;51.166;10.322;2023-08-06T03:06:50;96472.56;;;14.21;78.51
26865;BME280;40618;51.166;10.322;2023-08-06T03:09:16;96467.25;;;14.23;78.64
26865;BME280;40618;51.166;10.322;2023-08-06T03:11:42;96477.56;;;14.25;78.37
26865;BME280;40618;51.166;10.322;2023-08-06T03:14:08;96469.88;;;14.23;78.81
26865;BME280;40618;51.166;10.322;2023-08-06T03:16:34;96475.22;;;14.20;78.66
26865;BME280;40618;51.166;10.322;2023-08-06T03:19:00;96466.78;;;14.16;78.50
26865;BME280;40618;51.166;10.322;2023-08-06T03:21:26;96453.94;;;14.13;78.68
26865;BME280;40618;51.166;10.322;2023-08-06T03:23:51;96453.00;;;14.14;78.78
26865;BME280;40618;51.166;10.322;2023-08-06T03:26:17;96459.13;;;14.13;78.89
26865;BME280;40618;51.166;10.322;2023-08-06T03:28:43;96449.84;;;14.09;78.78
26865;BME280;40618;51.166;10.322;2023-08-06T03:31:08;96449.31;;;14.04;79.00
26865;BME280;40618;51.166;10.322;2023-08-06T03:33:34;96447.63;;;14.03;78.99
26865;BME280;40618;51.166;10.322;2023-08-06T03:36:00;96444.94;;;14.04;79.32
26865;BME280;40618;51.166;10.322;2023-08-06T03:38:25;96441.75;;;13.99;79.25
26865;BME280;40618;51.166;10.322;2023-08-06T03:40:51;96444.09;;;14.04;79.29
26865;BME280;40618;51.166;10.322;2023-08-06T03:43:17;96437.78;;;14.08;79.39
26865;BME280;40618;51.166;10.322;2023-08-06T03:45:42;96435.19;;;14.08;79.26
26865;BME280;40618;51.166;10.322;2023-08-06T03:48:08;96442.13;;;14.08;79.12
26865;BME280;40618;51.166;10.322;2023-08-06T03:50:34;96431.72;;;14.08;79.44
26865;BME280;40618;51.166;10.322;2023-08-06T03:53:00;96438.50;;;14.10;79.18
26865;BME280;40618;51.166;10.322;2023-08-06T03:55:27;96438.31;;;14.13;79.49
26865;BME280;40618;51.166;10.322;2023-08-06T03:57:52;96437.28;;;14.16;79.68
26865;BME280;40618;51.166;10.322;2023-08-06T04:00:18;96444.38;;;14.14;79.20
26865;BME280;40618;51.166;10.322;2023-08-06T04:02:44;96436.75;;;14.11;79.33
26865;BME280;40618;51.166;10.322;2023-08-06T04:05:09;96435.66;;;14.15;79.29
26865;BME280;40618;51.166;10.322;2023-08-06T04:07:35;96432.94;;;14.16;79.34
26865;BME280;40618;51.166;10.322;2023-08-06T04:10:03;96436.47;;;14.15;79.15
26865;BME280;40618;51.166;10.322;2023-08-06T04:12:30;96434.78;;;14.14;79.66
26865;BME280;40618;51.166;10.322;2023-08-06T04:14:58;96427.28;;;14.10;79.27
26865;BME280;40618;51.166;10.322;2023-08-06T04:17:24;96411.91;;;14.05;79.21
26865;BME280;40618;51.166;10.322;2023-08-06T04:19:51;96418.06;;;14.04;79.48
26865;BME280;40618;51.166;10.322;2023-08-06T04:22:18;96414.72;;;14.02;79.18
26865;BME280;40618;51.166;10.322;2023-08-06T04:24:44;96411.53;;;13.97;79.21
26865;BME280;40618;51.166;10.322;2023-08-06T04:27:11;96409.31;;;13.91;79.34
26865;BME280;40618;51.166;10.322;2023-08-06T04:29:38;96402.53;;;13.88;79.56
26865;BME280;40618;51.166;10.322;2023-08-06T04:32:05;96401.72;;;13.87;79.75
26865;BME280;40618;51.166;10.322;2023-08-06T04:34:32;96400.75;;;13.88;79.61
26865;BME280;40618;51.166;10.322;2023-08-06T04:37:00;96407.53;;;13.91;79.77
26865;BME280;40618;51.166;10.322;2023-08-06T04:39:26;96405.03;;;13.90;79.69
26865;BME280;40618;51.166;10.322;2023-08-06T04:41:52;96408.66;;;13.87;79.63
26865;BME280;40618;51.166;10.322;2023-08-06T04:44:17;96402.72;;;13.85;79.61
26865;BME280;40618;51.166;10.322;2023-08-06T04:46:43;96405.59;;;13.80;79.53
26865;BME280;40618;51.166;10.322;2023-08-06T04:49:09;96400.56;;;13.77;79.97
26865;BME280;40618;51.166;10.322;2023-08-06T04:51:35;96407.09;;;13.70;79.84
26865;BME280;40618;51.166;10.322;2023-08-06T04:54:01;96400.28;;;13.67;79.73
26865;BME280;40618;51.166;10.322;2023-08-06T04:56:27;96405.50;;;13.67;80.08
26865;BME280;40618;51.166;10.322;2023-08-06T04:58:52;96406.41;;;13.66;79.75
26865;BME280;40618;51.166;10.322;2023-08-06T05:01:18;96397.59;;;13.69;79.92
26865;BME280;40618;51.166;10.322;2023-08-06T05:03:44;96410.41;;;13.72;80.30
26865;BME280;40618;51.166;10.322;2023-08-06T05:06:09;96410.97;;;13.77;80.08
26865;BME280;40618;51.166;10.322;2023-08-06T05:08:36;96422.97;;;13.80;79.97
26865;BME280;40618;51.166;10.322;2023-08-06T05:11:01;96416.75;;;13.82;80.08
26865;BME280;40618;51.166;10.322;2023-08-06T05:13:27;96423.53;;;13.85;80.07
26865;BME280;40618;51.166;10.322;2023-08-06T05:15:54;96424.94;;;13.91;80.04
26865;BME280;40618;51.166;10.322;2023-08-06T05:18:20;96427.44;;;13.92;80.18
26865;BME280;40618;51.166;10.322;2023-08-06T05:20:45;96445.47;;;13.95;79.98
26865;BME280;40618;51.166;10.322;2023-08-06T05:23:11;96433.31;;;13.96;80.34
26865;BME280;40618;51.166;10.322;2023-08-06T05:25:38;96429.75;;;13.97;79.96
26865;BME280;40618;51.166;10.322;2023-08-06T05:28:04;96435.72;;;13.99;80.12
26865;BME280;40618;51.166;10.322;2023-08-06T05:30:30;96433.03;;;14.00;80.24
26865;BME280;40618;51.166;10.322;2023-08-06T05:32:55;96434.91;;;13.98;80.23
26865;BME280;40618;51.166;10.322;2023-08-06T05:35:22;96430.88;;;13.93;80.03
26865;BME280;40618;51.166;10.322;2023-08-06T05:37:48;96431.91;;;13.90;80.02
26865;BME280;40618;51.166;10.322;2023-08-06T05:40:16;96427.72;;;13.87;80.12
26865;BME280;40618;51.166;10.322;2023-08-06T05:42:41;96426.78;;;13.88;80.19
26865;BME280;40618;51.166;10.322;2023-08-06T05:45:08;96421.97;;;13.82;79.78
26865;BME280;40618;51.166;10.322;2023-08-06T05:47:34;96415.91;;;13.82;79.99
26865;BME280;40618;51.166;10.322;2023-08-06T05:50:00;96411.56;;;13.82;80.24
26865;BME280;40618;51.166;10.322;2023-08-06T05:52:26;96410.34;;;13.88;80.55
26865;BME280;40618;51.166;10.322;2023-08-06T05:54:51;96418.97;;;13.88;79.90
26865;BME280;40618;51.166;10.322;2023-08-06T05:57:17;96413.50;;;13.79;79.85
26865;BME280;40618;51.166;10.322;2023-08-06T05:59:43;96414.34;;;13.79;80.27
26865;BME280;40618;51.166;10.322;2023-08-06T06:02:09;96407.66;;;13.75;80.08
26865;BME280;40618;51.166;10.322;2023-08-06T06:04:35;96413.88;;;13.73;80.21
26865;BME280;40618;51.166;10.322;2023-08-06T06:07:00;96406.69;;;13.76;80.08
26865;BME280;40618;51.166;10.322;2023-08-06T06:09:26;96398.81;;;13.78;80.36
26865;BME280;40618;51.166;10.322;2023-08-06T06:11:52;96391.84;;;13.78;80.27
26865;BME280;40618;51.166;10.322;2023-08-06T06:14:18;96394.34;;;13.80;80.36
26865;BME280;40618;51.166;10.322;2023-08-06T06:16:44;96401.41;;;13.78;80.10
26865;BME280;40618;51.166;10.322;2023-08-06T06:19:11;96395.81;;;13.69;80.26
26865;BME280;40618;51.166;10.322;2023-08-06T06:21:38;96392.59;;;13.66;80.26
26865;BME280;40618;51.166;10.322;2023-08-06T06:24:04;96397.03;;;13.64;80.17
26865;BME280;40618;51.166;10.322;2023-08-06T06:26:31;96387.38;;;13.66;80.38
26865;BME280;40618;51.166;10.322;2023-08-06T06:28:57;96384.59;;;13.69;80.45
26865;BME280;40618;51.166;10.322;2023-08-06T06:31:23;96390.56;;;13.71;80.57
26865;BME280;40618;51.166;10.322;2023-08-06T06:33:49;96388.50;;;13.76;80.80
26865;BME280;40618;51.166;10.322;2023-08-06T06:36:15;96374.22;;;13.83;80.84
26865;BME280;40618;51.166;10.322;2023-08-06T06:38:40;96379.13;;;13.88;80.66
26865;BME280;40618;51.166;10.322;2023-08-06T06:41:06;96378.09;;;13.91;80.70
26865;BME280;40618;51.166;10.322;2023-08-06T06:43:32;96380.41;;;13.95;81.01
26865;BME280;40618;51.166;10.322;2023-08-06T06:45:59;96377.25;;;14.04;80.96
26865;BME280;40618;51.166;10.322;2023-08-06T06:48:29;96378.53;;;14.12;81.13
26865;BME280;40618;51.166;10.322;2023-08-06T06:50:56;96376.22;;;14.21;80.80
26865;BME280;40618;51.166;10.322;2023-08-06T06:53:22;96370.53;;;14.29;80.88
26865;BME280;40618;51.166;10.322;2023-08-06T06:55:53;96366.59;;;14.36;81.09
26865;BME280;40618;51.166;10.322;2023-08-06T06:58:19;96361.03;;;14.43;80.86
26865;BME280;40618;51.166;10.322;2023-08-06T07:00:46;96357.50;;;14.44;80.77
26865;BME280;40618;51.166;10.322;2023-08-06T07:03:14;96353.00;;;14.46;80.81
26865;BME280;40618;51.166;10.322;2023-08-06T07:05:40;96369.09;;;14.52;81.08
26865;BME280;40618;51.166;10.322;2023-08-06T07:08:06;96354.09;;;14.56;80.67
26865;BME280;40618;51.166;10.322;2023-08-06T07:10:31;96353.91;;;14.59;81.00
26865;BME280;40618;51.166;10.322;2023-08-06T07:12:57;96353.63;;;14.64;81.27
26865;BME280;40618;51.166;10.322;2023-08-06T07:15:22;96353.03;;;14.73;80.87
26865;BME280;40618;51.166;10.322;2023-08-06T07:17:48;96357.78;;;14.81;81.49
26865;BME280;40618;51.166;10.322;2023-08-06T07:20:14;96359.13;;;14.86;81.07
26865;BME280;40618;51.166;10.322;2023-08-06T07:22:39;96364.69;;;14.95;81.45
26865;BME280;40618;51.166;10.322;2023-08-06T07:25:05;96365.22;;;15.00;81.20
26865;BME280;40618;51.166;10.322;2023-08-06T07:27:32;96357.09;;;15.04;80.88
26865;BME280;40618;51.166;10.322;2023-08-06T07:29:57;96365.22;;;15.00;80.83
26865;BME280;40618;51.166;10.322;2023-08-06T07:32:23;96361.25;;;14.94;80.52
26865;BME280;40618;51.166;10.322;2023-08-06T07:34:49;96355.19;;;14.94;81.01
26865;BME280;40618;51.166;10.322;2023-08-06T07:37:16;96353.53;;;14.93;80.96
26865;BME280;40618;51.166;10.322;2023-08-06T07:39:42;96358.81;;;14.91;80.62
26865;BME280;40618;51.166;10.322;2023-08-06T07:42:08;96358.66;;;14.94;80.98
26865;BME280;40618;51.166;10.322;2023-08-06T07:44:35;96358.34;;;14.99;80.89
26865;BME280;40618;51.166;10.322;2023-08-06T07:47:01;96356.88;;;14.95;80.11
26865;BME280;40618;51.166;10.322;2023-08-06T07:49:26;96355.00;;;14.97;80.97
26865;BME280;40618;51.166;10.322;2023-08-06T07:51:52;96358.88;;;15.04;80.97
26865;BME280;40618;51.166;10.322;2023-08-06T07:54:18;96351.06;;;15.17;80.50
26865;BME280;40618;51.166;10.322;2023-08-06T07:56:43;96348.34;;;15.18;80.22
26865;BME280;40618;51.166;10.322;2023-08-06T07:59:09;96349.22;;;15.19;80.60
26865;BME280;40618;51.166;10.322;2023-08-06T08:01:35;96350.03;;;15.19;80.60
26865;BME280;40618;51.166;10.322;2023-08-06T08:04:00;96343.06;;;15.20;80.53
26865;BME280;40618;51.166;10.322;2023-08-06T08:06:26;96347.53;;;15.18;80.56
26865;BME280;40618;51.166;10.322;2023-08-06T08:08:52;96344.09;;;15.17;80.15
26865;BME280;40618;51.166;10.322;2023-08-06T08:11:17;96334.38;;;15.19;80.50
26865;BME280;40618;51.166;10.322;2023-08-06T08:13:43;96330.03;;;15.20;79.95
26865;BME280;40618;51.166;10.322;2023-08-06T08:16:09;96326.66;;;15.31;80.38
26865;BME280;40618;51.166;10.322;2023-08-06T08:18:35;96320.84;;;15.40;80.56
26865;BME280;40618;51.166;10.322;2023-08-06T08:21:01;96323.97;;;15.45;80.34
26865;BME280;40618;51.166;10.322;2023-08-06T08:23:26;96326.47;;;15.47;80.01
26865;BME280;40618;51.166;10.322;2023-08-06T08:25:52;96322.84;;;15.49;80.26
26865;BME280;40618;51.166;10.322;2023-08-06T08:28:18;96319.19;;;15.52;79.64
26865;BME280;40618;51.166;10.322;2023-08-06T08:30:44;96321.69;;;15.53;79.75
26865;BME280;40618;51.166;10.322;2023-08-06T08:33:10;96323.25;;;15.56;79.97
26865;BME280;40618;51.166;10.322;2023-08-06T08:35:36;96322.31;;;15.57;79.62
26865;BME280;40618;51.166;10.322;2023-08-06T08:38:02;96317.53;;;15.64;80.20
26865;BME280;40618;51.166;10.322;2023-08-06T08:40:32;96312.09;;;15.67;79.93
26865;BME280;40618;51.166;10.322;2023-08-06T08:43:02;96313.84;;;15.66;79.60
26865;BME280;40618;51.166;10.322;2023-08-06T08:45:29;96314.59;;;15.68;79.79
26865;BME280;40618;51.166;10.322;2023-08-06T08:47:55;96314.38;;;15.71;79.64
26865;BME280;40618;51.166;10.322;2023-08-06T08:50:21;96315.22;;;15.72;79.56
26865;BME280;40618;51.166;10.322;2023-08-06T08:52:50;96309.66;;;15.77;79.47
26865;BME280;40618;51.166;10.322;2023-08-06T08:55:16;96311.97;;;15.81;79.33
26865;BME280;40618;51.166;10.322;2023-08-06T08:57:43;96303.41;;;15.92;79.54
26865;BME280;40618;51.166;10.322;2023-08-06T09:00:09;96306.19;;;16.15;79.84
26865;BME280;40618;51.166;10.322;2023-08-06T09:02:36;96303.97;;;16.46;80.12
26865;BME280;40618;51.166;10.322;2023-08-06T09:05:05;96295.09;;;16.84;80.07
26865;BME280;40618;51.166;10.322;2023-08-06T09:07:35;96298.81;;;17.17;79.48
26865;BME280;40618;51.166;10.322;2023-08-06T09:10:14;96298.97;;;17.38;78.88
26865;BME280;40618;51.166;10.322;2023-08-06T09:12:43;96301.59;;;17.49;78.84
26865;BME280;40618;51.166;10.322;2023-08-06T09:15:10;96299.25;;;17.69;78.23
26865;BME280;40618;51.166;10.322;2023-08-06T09:17:36;96299.34;;;17.67;77.96
26865;BME280;40618;51.166;10.322;2023-08-06T09:20:13;96296.16;;;17.52;77.44
26865;BME280;40618;51.166;10.322;2023-08-06T09:22:39;96297.78;;;17.53;77.34
26865;BME280;40618;51.166;10.322;2023-08-06T09:25:07;96297.56;;;17.56;76.42
26865;BME280;40618;51.166;10.322;2023-08-06T09:27:39;96298.53;;;17.55;76.82
26865;BME280;40618;51.166;10.322;2023-08-06T09:30:08;96301.72;;;17.48;76.18
26865;BME280;40618;51.166;10.322;2023-08-06T09:32:47;96294.91;;;17.34;75.87
26865;BME280;40618;51.166;10.322;2023-08-06T09:35:19;96303.19;;;17.16;75.97
26865;BME280;40618;51.166;10.322;2023-08-06T09:37:45;96293.91;;;17.01;76.22
26865;BME280;40618;51.166;10.322;2023-08-06T09:40:27;96293.28;;;16.97;75.90
26865;BME280;40618;51.166;10.322;2023-08-06T09:42:55;96290.09;;;16.94;76.16
26865;BME280;40618;51.166;10.322;2023-08-06T09:45:21;96289.72;;;16.98;76.20
26865;BME280;40618;51.166;10.322;2023-08-06T09:47:55;96285.13;;;17.02;76.08
26865;BME280;40618;51.166;10.322;2023-08-06T09:50:21;96289.63;;;17.00;76.10
26865;BME280;40618;51.166;10.322;2023-08-06T09:52:48;96290.78;;;16.96;75.65
26865;BME280;40618;51.166;10.322;2023-08-06T09:55:15;96291.03;;;16.92;75.77
26865;BME280;40618;51.166;10.322;2023-08-06T09:57:42;96282.72;;;16.99;75.90
26865;BME280;40618;51.166;10.322;2023-08-06T10:00:09;96283.31;;;17.02;75.81
26865;BME280;40618;51.166;10.322;2023-08-06T10:02:37;96289.31;;;17.16;76.22
26865;BME280;40618;51.166;10.322;2023-08-06T10:05:05;96287.09;;;17.56;76.47
26865;BME280;40618;51.166;10.322;2023-08-06T10:07:31;96279.34;;;17.89;76.01
26865;BME280;40618;51.166;10.322;2023-08-06T10:09:58;96268.66;;;18.03;75.38
26865;BME280;40618;51.166;10.322;2023-08-06T10:12:25;96274.34;;;18.20;75.60
26865;BME280;40618;51.166;10.322;2023-08-06T10:14:55;96262.97;;;18.42;75.19
26865;BME280;40618;51.166;10.322;2023-08-06T10:17:25;96256.19;;;18.72;75.04
26865;BME280;40618;51.166;10.322;2023-08-06T10:19:52;96252.19;;;19.10;75.15
26865;BME280;40618;51.166;10.322;2023-08-06T10:22:20;96249.91;;;19.48;74.56
26865;BME280;40618;51.166;10.322;2023-08-06T10:24:57;96259.75;;;19.55;73.64
26865;BME280;40618;51.166;10.322;2023-08-06T10:27:33;96259.13;;;19.42;73.39
26865;BME280;40618;51.166;10.322;2023-08-06T10:32:58;96257.56;;;19.08;72.77
26865;BME280;40618;51.166;10.322;2023-08-06T10:35:47;96260.06;;;18.89;72.67
26865;BME280;40618;51.166;10.322;2023-08-06T10:43:32;96237.69;;;19.06;72.89
26865;BME280;40618;51.166;10.322;2023-08-06T10:46:00;96233.38;;;19.05;72.50
26865;BME280;40618;51.166;10.322;2023-08-06T10:48:38;96232.59;;;18.93;72.60
26865;BME280;40618;51.166;10.322;2023-08-06T10:51:10;96235.59;;;19.09;72.70
26865;BME280;40618;51.166;10.322;2023-08-06T10:53:38;96238.44;;;19.18;72.33
26865;BME280;40618;51.166;10.322;2023-08-06T10:56:22;96234.16;;;19.17;71.98
26865;BME280;40618;51.166;10.322;2023-08-06T10:58:49;96234.03;;;19.18;71.99
26865;BME280;40618;51.166;10.322;2023-08-06T11:01:16;96233.56;;;19.13;71.39
26865;BME280;40618;51.166;10.322;2023-08-06T11:03:44;96235.81;;;18.97;71.22
26865;BME280;40618;51.166;10.322;2023-08-06T11:06:17;96234.31;;;18.83;71.13
26865;BME280;40618;51.166;10.322;2023-08-06T11:08:51;96240.25;;;18.64;71.10
26865;BME280;40618;51.166;10.322;2023-08-06T11:11:18;96228.53;;;18.47;71.06
26865;BME280;40618;51.166;10.322;2023-08-06T11:13:46;96234.66;;;18.24;71.28
26865;BME280;40618;51.166;10.322;2023-08-06T11:16:23;96238.19;;;17.91;71.33
26865;BME280;40618;51.166;10.322;2023-08-06T11:18:50;96243.41;;;17.34;71.63
26865;BME280;40618;51.166;10.322;2023-08-06T11:21:20;96247.78;;;16.75;72.91
26865;BME280;40618;51.166;10.322;2023-08-06T11:23:45;96238.09;;;16.53;73.59
26865;BME280;40618;51.166;10.322;2023-08-06T11:26:11;96235.84;;;16.49;74.19
26865;BME280;40618;51.166;10.322;2023-08-06T11:28:37;96230.59;;;16.49;74.80
26865;BME280;40618;51.166;10.322;2023-08-06T11:31:02;96233.50;;;16.57;75.15
26865;BME280;40618;51.166;10.322;2023-08-06T11:33:29;96231.97;;;16.66;75.33
26865;BME280;40618;51.166;10.322;2023-08-06T11:35:56;96238.88;;;16.67;75.38
26865;BME280;40618;51.166;10.322;2023-08-06T11:38:29;96245.03;;;16.66;75.44
26865;BME280;40618;51.166;10.322;2023-08-06T11:40:55;96242.88;;;16.60;76.05
26865;BME280;40618;51.166;10.322;2023-08-06T11:43:21;96234.94;;;16.61;76.24
26865;BME280;40618;51.166;10.322;2023-08-06T11:45:48;96234.53;;;16.54;76.12
26865;BME280;40618;51.166;10.322;2023-08-06T11:48:15;96229.88;;;16.47;76.06
26865;BME280;40618;51.166;10.322;2023-08-06T11:50:40;96222.66;;;16.50;76.48
26865;BME280;40618;51.166;10.322;2023-08-06T11:53:06;96227.06;;;16.50;76.57
26865;BME280;40618;51.166;10.322;2023-08-06T11:55:32;96211.16;;;16.53;76.88
26865;BME280;40618;51.166;10.322;2023-08-06T11:58:02;96205.94;;;16.64;76.94
26865;BME280;40618;51.166;10.322;2023-08-06T12:00:32;96206.81;;;16.76;76.86
26865;BME280;40618;51.166;10.322;2023-08-06T12:02:58;96212.31;;;16.84;77.05
26865;BME280;40618;51.166;10.322;2023-08-06T12:05:29;96210.47;;;16.98;77.20
26865;BME280;40618;51.166;10.322;2023-08-06T12:07:57;96213.91;;;17.09;77.32
26865;BME280;40618;51.166;10.322;2023-08-06T12:10:25;96211.91;;;17.13;76.74
26865;BME280;40618;51.166;10.322;2023-08-06T12:12:53;96210.72;;;17.17;76.99
26865;BME280;40618;51.166;10.322;2023-08-06T12:15:19;96208.47;;;17.24;77.02
26865;BME280;40618;51.166;10.322;2023-08-06T12:17:45;96206.22;;;17.31;77.36
26865;BME280;40618;51.166;10.322;2023-08-06T12:20:12;96207.63;;;17.35;77.03
26865;BME280;40618;51.166;10.322;2023-08-06T12:22:38;96198.50;;;17.29;76.73
26865;BME280;40618;51.166;10.322;2023-08-06T12:25:07;96206.44;;;17.28;77.16
26865;BME280;40618;51.166;10.322;2023-08-06T12:27:41;96212.63;;;17.27;77.18
26865;BME280;40618;51.166;10.322;2023-08-06T12:30:09;96205.25;;;17.32;77.19
26865;BME280;40618;51.166;10.322;2023-08-06T12:32:36;96196.31;;;17.34;76.95
26865;BME280;40618;51.166;10.322;2023-08-06T12:35:03;96207.84;;;17.32;77.39
26865;BME280;40618;51.166;10.322;2023-08-06T12:37:30;96202.38;;;17.23;77.37
26865;BME280;40618;51.166;10.322;2023-08-06T12:39:56;96208.47;;;17.24;77.37
26865;BME280;40618;51.166;10.322;2023-08-06T12:42:22;96207.53;;;17.25;77.17
26865;BME280;40618;51.166;10.322;2023-08-06T12:44:49;96206.22;;;17.31;77.51
26865;BME280;40618;51.166;10.322;2023-08-06T12:47:16;96206.56;;;17.37;77.09
26865;BME280;40618;51.166;10.322;2023-08-06T12:49:44;96205.03;;;17.35;77.28
26865;BME280;40618;51.166;10.322;2023-08-06T12:52:12;96203.72;;;17.40;77.34
26865;BME280;40618;51.166;10.322;2023-08-06T12:54:40;96201.66;;;17.44;77.30
26865;BME280;40618;51.166;10.322;2023-08-06T12:57:06;96202.28;;;17.48;77.18
26865;BME280;40618;51.166;10.322;2023-08-06T12:59:34;96207.38;;;17.49;77.27
26865;BME280;40618;51.166;10.322;2023-08-06T13:02:02;96192.16;;;17.54;77.43